createdAt,value
2022-09-18T00:04:46.451Z,69.50
2022-09-18T00:09:54.287Z,69.47
2022-09-18T00:15:02.112Z,69.43
2022-09-18T00:20:11.789Z,71.01
2022-09-18T00:25:19.972Z,71.11
2022-09-18T00:30:27.854Z,70.31
2022-09-18T00:35:35.907Z,68.30
2022-09-18T00:40:43.704Z,67.98
2022-09-18T00:45:56.541Z,68.42
2022-09-18T00:51:05.037Z,70.11
2022-09-18T00:56:17.258Z,70.05
2022-09-18T01:01:26.385Z,69.71
2022-09-18T01:06:44.836Z,69.14
2022-09-18T01:11:57.760Z,69.14
2022-09-18T01:17:16.044Z,68.84
2022-09-18T01:22:33.812Z,68.51
2022-09-18T01:27:48.865Z,68.04
2022-09-18T01:33:02.801Z,67.67
2022-09-18T01:38:14.787Z,67.43
2022-09-18T01:43:27.109Z,67.42
2022-09-18T01:48:40.405Z,67.69
2022-09-18T01:53:51.367Z,68.17
2022-09-18T01:59:04.104Z,68.72
2022-09-18T02:04:37.899Z,69.28
2022-09-18T02:09:50.335Z,69.77
2022-09-18T02:15:06.365Z,70.24
2022-09-18T02:20:22.814Z,70.72
2022-09-18T02:25:37.362Z,71.19
2022-09-18T02:30:46.019Z,71.88
2022-09-18T02:36:04.489Z,71.43
2022-09-18T02:41:27.985Z,71.85
2022-09-18T02:46:49.288Z,72.17
2022-09-18T02:52:01.320Z,71.96
2022-09-18T02:57:15.539Z,73.53
2022-09-18T03:02:26.971Z,73.10
2022-09-18T03:07:35.708Z,73.40
2022-09-18T03:12:44.369Z,73.73
2022-09-18T03:17:52.462Z,74.16
2022-09-18T03:23:00.664Z,74.56
2022-09-18T03:28:08.644Z,75.22
2022-09-18T03:33:20.363Z,75.67
2022-09-18T03:38:28.595Z,75.90
2022-09-18T03:43:37.372Z,76.12
2022-09-18T03:48:46.583Z,76.35
2022-09-18T03:53:55.221Z,76.50
2022-09-18T03:59:32.896Z,76.59
2022-09-18T04:05:02.761Z,76.72
2022-09-18T04:10:33.911Z,77.05
2022-09-18T04:15:42.171Z,77.47
2022-09-18T04:20:50.271Z,77.35
2022-09-18T04:25:59.168Z,77.87
2022-09-18T04:31:12.371Z,78.00
2022-09-18T04:36:20.401Z,78.22
2022-09-18T04:41:28.277Z,79.04
2022-09-18T04:46:37.118Z,78.67
2022-09-18T04:51:45.187Z,80.34
2022-09-18T04:56:55.053Z,79.25
2022-09-18T05:02:03.796Z,78.57
2022-09-18T05:07:11.722Z,78.65
2022-09-18T05:12:20.120Z,78.79
2022-09-18T05:17:28.210Z,78.91
2022-09-18T05:22:41.365Z,78.98
2022-09-18T05:27:59.970Z,79.13
2022-09-18T05:33:14.020Z,79.29
2022-09-18T05:38:22.199Z,79.52
2022-09-18T05:43:30.441Z,79.66
2022-09-18T05:48:38.502Z,79.78
2022-09-18T05:53:48.876Z,79.92
2022-09-18T05:58:58.475Z,79.99
2022-09-18T06:04:07.638Z,78.87
2022-09-18T06:09:26.676Z,79.86
2022-09-18T06:14:34.039Z,80.11
2022-09-18T06:19:42.110Z,80.13
2022-09-18T06:24:50.742Z,80.32
2022-09-18T06:30:04.432Z,80.35
2022-09-18T06:35:14.693Z,80.32
2022-09-18T06:40:24.336Z,80.95
2022-09-18T06:45:57.383Z,81.03
2022-09-18T06:51:07.675Z,80.18
2022-09-18T06:56:24.334Z,80.75
2022-09-18T07:01:32.671Z,80.47
2022-09-18T07:06:56.034Z,80.75
2022-09-18T07:12:05.155Z,80.75
2022-09-18T07:17:26.642Z,80.61
2022-09-18T07:22:36.291Z,80.91
2022-09-18T07:27:45.257Z,81.08
2022-09-18T07:32:54.096Z,81.33
2022-09-18T07:38:09.744Z,81.24
2022-09-18T07:43:31.914Z,81.26
2022-09-18T07:48:41.793Z,81.53
2022-09-18T07:54:01.725Z,81.13
2022-09-18T07:59:28.125Z,79.99
2022-09-18T08:04:39.466Z,81.30
2022-09-18T08:10:17.226Z,81.62
2022-09-18T08:15:46.335Z,82.00
2022-09-18T08:21:10.497Z,82.25
2022-09-18T08:26:25.399Z,81.82
2022-09-18T08:31:33.343Z,81.90
2022-09-18T08:36:42.129Z,82.11
2022-09-18T08:42:25.739Z,82.37
2022-09-18T08:47:41.017Z,82.13
2022-09-18T08:52:54.979Z,82.44
2022-09-18T08:58:16.536Z,82.51
2022-09-18T09:03:33.510Z,82.54
2022-09-18T09:09:02.399Z,82.61
2022-09-18T09:14:55.468Z,82.34
2022-09-18T09:20:09.205Z,82.40
2022-09-18T09:25:25.567Z,82.49
2022-09-18T09:30:50.815Z,82.46
2022-09-18T09:36:20.267Z,82.43
2022-09-18T09:41:36.040Z,82.48
2022-09-18T09:47:08.075Z,82.31
2022-09-18T09:52:24.022Z,82.23
2022-09-18T09:57:40.722Z,82.05
2022-09-18T10:03:27.575Z,81.98
2022-09-18T10:08:43.687Z,81.64
2022-09-18T10:13:58.223Z,81.59
2022-09-18T10:19:07.103Z,81.71
2022-09-18T10:24:22.113Z,81.52
2022-09-18T10:29:35.546Z,81.41
2022-09-18T10:34:55.180Z,81.27
2022-09-18T10:40:05.435Z,81.21
2022-09-18T10:45:27.775Z,81.36
2022-09-18T10:50:57.886Z,81.31
2022-09-18T10:56:22.804Z,81.35
2022-09-18T11:01:33.675Z,81.33
2022-09-18T11:06:49.168Z,81.30
2022-09-18T11:12:03.378Z,81.23
2022-09-18T11:17:27.219Z,81.19
2022-09-18T11:22:43.594Z,81.16
2022-09-18T11:28:02.242Z,81.05
2022-09-18T11:33:22.624Z,80.94
2022-09-18T11:38:33.086Z,80.72
2022-09-18T11:43:45.046Z,80.67
2022-09-18T11:49:03.738Z,80.65
2022-09-18T11:54:25.986Z,80.68
2022-09-18T11:59:42.816Z,80.60
2022-09-18T12:04:54.798Z,80.46
2022-09-18T12:10:13.184Z,80.33
2022-09-18T12:15:24.531Z,80.14
2022-09-18T12:20:40.708Z,79.99
2022-09-18T12:26:08.528Z,79.93
2022-09-18T12:31:42.739Z,79.80
2022-09-18T12:37:08.835Z,79.69
2022-09-18T12:42:27.770Z,79.60
2022-09-18T12:48:01.016Z,79.39
2022-09-18T12:53:28.381Z,79.26
2022-09-18T12:58:52.038Z,79.21
2022-09-18T13:04:14.989Z,79.17
2022-09-18T13:09:29.159Z,79.13
2022-09-18T13:14:42.636Z,78.99
2022-09-18T13:19:57.781Z,78.84
2022-09-18T13:25:09.565Z,78.71
2022-09-18T13:30:27.612Z,78.55
2022-09-18T13:35:39.979Z,78.27
2022-09-18T13:40:50.757Z,78.04
2022-09-18T13:46:04.685Z,77.86
2022-09-18T13:51:28.498Z,77.70
2022-09-18T13:57:30.808Z,77.38
2022-09-18T14:02:40.589Z,77.10
2022-09-18T14:08:07.997Z,76.81
2022-09-18T14:13:43.607Z,76.65
2022-09-18T14:19:02.350Z,76.36
2022-09-18T14:30:04.916Z,75.69
2022-09-18T14:35:34.792Z,75.55
2022-09-18T14:40:43.676Z,75.36
2022-09-18T14:45:52.559Z,75.23
2022-09-18T14:51:06.369Z,75.10
2022-09-18T14:56:17.993Z,74.99
2022-09-18T15:01:30.408Z,74.93
2022-09-18T15:06:39.755Z,74.80
2022-09-18T15:12:02.328Z,74.59
2022-09-18T15:17:21.501Z,74.38
2022-09-18T15:22:30.452Z,74.22
2022-09-18T15:27:38.724Z,74.08
2022-09-18T15:32:51.360Z,73.92
2022-09-18T15:38:03.327Z,73.83
2022-09-18T15:43:43.832Z,73.76
2022-09-18T15:48:52.402Z,73.73
2022-09-18T15:54:25.118Z,73.61
2022-09-18T15:59:35.823Z,73.58
2022-09-18T16:04:43.311Z,73.37
2022-09-18T16:09:52.537Z,73.43
2022-09-18T16:15:19.268Z,73.45
2022-09-18T16:20:34.673Z,73.60
2022-09-18T16:25:44.166Z,73.75
2022-09-18T16:30:52.319Z,73.92
2022-09-18T16:36:05.378Z,74.16
2022-09-18T16:41:14.679Z,74.37
2022-09-18T16:46:24.287Z,74.49
2022-09-18T16:51:32.274Z,74.54
2022-09-18T16:56:45.443Z,74.57
2022-09-18T17:02:03.892Z,74.60
2022-09-18T17:07:13.759Z,74.70
2022-09-18T17:12:21.771Z,74.79
2022-09-18T17:17:30.077Z,75.02
2022-09-18T17:22:38.536Z,75.27
2022-09-18T17:27:46.674Z,75.53
2022-09-18T17:32:54.802Z,75.76
2022-09-18T17:38:02.902Z,75.93
2022-09-18T17:43:10.768Z,75.95
2022-09-18T17:48:18.772Z,76.00
2022-09-18T17:53:26.942Z,76.05
2022-09-18T17:58:39.326Z,76.12
2022-09-18T18:03:48.288Z,76.30
2022-09-18T18:08:56.876Z,76.54
2022-09-18T18:14:04.613Z,76.80
2022-09-18T18:19:14.182Z,77.11
2022-09-18T18:24:22.488Z,77.42
2022-09-18T18:29:30.487Z,77.73
2022-09-18T18:34:39.387Z,78.00
2022-09-18T18:39:48.654Z,78.08
2022-09-18T18:44:56.491Z,78.01
2022-09-18T18:50:04.846Z,77.86
2022-09-18T18:55:13.817Z,77.69
2022-09-18T19:00:27.783Z,77.68
2022-09-18T19:05:36.571Z,77.66
2022-09-18T19:10:47.139Z,77.75
2022-09-18T19:15:54.540Z,78.08
2022-09-18T19:21:03.737Z,78.43
2022-09-18T19:26:15.059Z,78.71
2022-09-18T19:31:25.153Z,79.07
2022-09-18T19:36:34.505Z,79.33
2022-09-18T19:41:47.899Z,79.58
2022-09-18T19:47:00.354Z,79.76
2022-09-18T19:52:19.235Z,79.95
2022-09-18T19:57:28.863Z,80.11
2022-09-18T20:02:36.756Z,80.32
2022-09-18T20:07:44.753Z,80.53
2022-09-18T20:12:52.974Z,80.69
2022-09-18T20:18:00.966Z,80.85
2022-09-18T20:23:09.092Z,81.02
2022-09-18T20:28:17.010Z,81.18
2022-09-18T20:33:26.006Z,81.36
2022-09-18T20:38:36.245Z,81.48
2022-09-18T20:43:44.851Z,81.63
2022-09-18T20:48:55.393Z,81.78
2022-09-18T20:54:04.719Z,81.94
2022-09-18T20:59:13.347Z,82.06
2022-09-18T21:04:22.961Z,82.18
2022-09-18T21:09:32.491Z,82.32
2022-09-18T21:14:41.093Z,82.44
2022-09-18T21:19:50.454Z,82.57
2022-09-18T21:24:58.537Z,82.71
2022-09-18T21:30:08.122Z,82.75
2022-09-18T21:35:16.415Z,82.97
2022-09-18T21:40:24.713Z,83.15
2022-09-18T21:45:32.845Z,83.23
2022-09-18T21:50:41.383Z,83.31
2022-09-18T21:55:49.337Z,83.45
2022-09-18T22:00:57.307Z,83.47
2022-09-18T22:06:05.677Z,83.52
2022-09-18T22:11:13.537Z,83.64
2022-09-18T22:16:21.912Z,83.66
2022-09-18T22:21:32.649Z,83.78
2022-09-18T22:26:42.614Z,83.71
2022-09-18T22:31:51.685Z,83.86
2022-09-18T22:36:59.942Z,83.95
2022-09-18T22:42:08.003Z,84.08
2022-09-18T22:47:16.490Z,84.22
2022-09-18T22:52:24.527Z,84.28
2022-09-18T22:57:32.825Z,84.44
2022-09-18T23:02:40.639Z,84.51
2022-09-18T23:07:50.754Z,84.39
2022-09-18T23:12:58.990Z,84.45
2022-09-18T23:18:07.298Z,84.52
2022-09-18T23:23:15.244Z,84.55
2022-09-18T23:28:23.110Z,84.48
2022-09-18T23:33:30.943Z,84.54
2022-09-18T23:38:39.165Z,84.57
2022-09-18T23:43:51.176Z,84.59
2022-09-18T23:48:59.496Z,84.59
2022-09-18T23:54:17.514Z,84.61
